Time;durP1;ratioP1;P1;durP2;ratioP2;P2;SDS_P1;SDS_P2;PMS_P1;PMS_P2;Temp;Humidity;BMP_temperature;BMP_pressure;BME280_temperature;BME280_humidity;BME280_pressure;Samples;Min_cycle;Max_cycle;Signal;HPM_P1;HPM_P2
2022/04/01 00:00:44;;;;;;;7.50;4.53;;;;;;;-0.47;100.00;100706.28;5094016;28;20048;-72
2022/04/01 00:03:12;;;;;;;6.05;3.45;;;;;;;-0.44;100.00;100713.31;5094030;28;20131;-72
2022/04/01 00:05:41;;;;;;;7.70;3.95;;;;;;;-0.41;100.00;100698.91;5094421;28;20055;-72
2022/04/01 00:08:11;;;;;;;7.30;4.45;;;;;;;-0.43;100.00;100713.38;5094352;28;20067;-72
2022/04/01 00:10:39;;;;;;;10.50;4.45;;;;;;;-0.45;100.00;100699.53;5094114;28;20047;-72
2022/04/01 00:13:08;;;;;;;6.07;3.85;;;;;;;-0.48;100.00;100711.34;5094112;28;20097;-71
2022/04/01 00:15:36;;;;;;;6.00;3.75;;;;;;;-0.45;100.00;100720.16;5093782;28;20473;-72
2022/04/01 00:18:04;;;;;;;6.95;4.45;;;;;;;-0.50;100.00;100719.00;5093825;28;20047;-71
2022/04/01 00:20:32;;;;;;;11.23;4.60;;;;;;;-0.52;100.00;100723.19;5094195;28;20131;-71
2022/04/01 00:23:00;;;;;;;7.22;3.97;;;;;;;-0.53;100.00;100711.09;5093989;28;20481;-71
2022/04/01 00:25:29;;;;;;;8.25;4.45;;;;;;;-0.47;100.00;100718.28;5093894;28;20365;-73
2022/04/01 00:27:57;;;;;;;6.68;4.07;;;;;;;-0.48;100.00;100729.41;5093764;28;20518;-73
2022/04/01 00:30:25;;;;;;;7.65;5.00;;;;;;;-0.49;100.00;100731.09;5093572;28;20075;-73
2022/04/01 00:32:53;;;;;;;8.25;5.20;;;;;;;-0.51;100.00;100714.66;5093462;28;20127;-74
2022/04/01 00:35:21;;;;;;;9.15;4.70;;;;;;;-0.53;100.00;100729.13;5093368;28;20044;-73
2022/04/01 00:37:49;;;;;;;5.03;3.55;;;;;;;-0.50;100.00;100715.53;5093173;28;20058;-73
2022/04/01 00:40:17;;;;;;;8.57;4.82;;;;;;;-0.54;100.00;100727.38;5093701;28;20080;-73
2022/04/01 00:42:46;;;;;;;6.80;3.60;;;;;;;-0.54;100.00;100724.78;5093405;28;20092;-74
2022/04/01 00:45:16;;;;;;;9.40;4.18;;;;;;;-0.56;100.00;100731.53;5093385;28;20123;-73
2022/04/01 00:47:43;;;;;;;8.68;4.90;;;;;;;-0.61;100.00;100727.81;5093558;28;20044;-73
2022/04/01 00:50:11;;;;;;;5.85;3.65;;;;;;;-0.62;100.00;100738.03;5093436;28;20093;-73
2022/04/01 00:52:42;;;;;;;6.68;4.28;;;;;;;-0.64;100.00;100737.94;5093070;28;20085;-73
2022/04/01 00:55:10;;;;;;;10.50;4.72;;;;;;;-0.66;100.00;100748.16;5093189;28;20040;-73
2022/04/01 00:57:39;;;;;;;9.60;4.60;;;;;;;-0.68;100.00;100761.75;5093129;28;20075;-72
2022/04/01 01:00:12;;;;;;;8.32;4.75;;;;;;;-0.68;100.00;100756.59;5092941;28;20054;-72
2022/04/01 01:02:40;;;;;;;8.60;4.38;;;;;;;-0.68;100.00;100754.91;5092917;28;20115;-72
2022/04/01 01:05:08;;;;;;;7.15;3.95;;;;;;;-0.66;100.00;100750.75;5093119;28;20058;-72
2022/04/01 01:07:40;;;;;;;6.82;4.10;;;;;;;-0.71;100.00;100756.44;5093172;28;20097;-72
2022/04/01 01:10:10;;;;;;;9.63;4.88;;;;;;;-0.74;100.00;100759.72;5092876;28;20135;-70
2022/04/01 01:12:38;;;;;;;7.20;4.32;;;;;;;-0.73;100.00;100753.78;5092937;28;20051;-70
2022/04/01 01:15:13;;;;;;;5.93;3.72;;;;;;;-0.71;100.00;100761.59;5093270;28;20044;-70
2022/04/01 01:17:42;;;;;;;8.77;4.25;;;;;;;-0.71;100.00;100757.31;5093148;28;20064;-70
2022/04/01 01:20:15;;;;;;;6.85;3.85;;;;;;;-0.70;100.00;100759.09;5092993;28;20067;-70
2022/04/01 01:22:44;;;;;;;6.32;3.65;;;;;;;-0.76;100.00;100758.75;5092656;28;20044;-70
2022/04/01 01:25:14;;;;;;;12.52;4.75;;;;;;;-0.73;100.00;100770.91;5093320;28;20101;-70
2022/04/01 01:27:42;;;;;;;7.43;4.05;;;;;;;-0.71;100.00;100764.16;5092845;28;20075;-70
2022/04/01 01:30:12;;;;;;;7.10;4.18;;;;;;;-0.70;100.00;100768.50;5084956;28;20048;-70
2022/04/01 01:32:40;;;;;;;8.98;5.03;;;;;;;-0.72;100.00;100767.53;5092406;28;20046;-70
2022/04/01 01:35:09;;;;;;;9.32;5.00;;;;;;;-0.72;100.00;100775.25;5092799;28;20043;-70
2022/04/01 01:37:38;;;;;;;7.72;4.30;;;;;;;-0.74;100.00;100774.28;5092715;28;20437;-70
2022/04/01 01:40:08;;;;;;;8.02;5.40;;;;;;;-0.71;100.00;100780.50;5092801;28;20104;-70
2022/04/01 01:42:38;;;;;;;7.68;4.68;;;;;;;-0.71;100.00;100772.78;5092776;28;20046;-70
2022/04/01 01:45:08;;;;;;;9.88;4.95;;;;;;;-0.80;100.00;100772.25;5092597;28;20052;-70
2022/04/01 01:47:36;;;;;;;9.40;4.60;;;;;;;-0.74;100.00;100777.75;5092300;28;20044;-70
2022/04/01 01:55:36;;;;;;;7.60;4.25;;;;;;;-0.72;100.00;100778.72;5092185;28;20044;-70
2022/04/01 01:58:05;;;;;;;10.23;4.72;;;;;;;-0.77;100.00;100785.31;5092524;28;20130;-70
2022/04/01 02:00:34;;;;;;;7.78;4.63;;;;;;;-0.74;100.00;100776.88;5092681;28;20101;-69
2022/04/01 02:03:04;;;;;;;12.32;6.07;;;;;;;-0.73;100.00;100789.81;5092369;28;20067;-70
2022/04/01 02:05:34;;;;;;;11.18;5.25;;;;;;;-0.72;100.00;100780.41;5092058;28;20043;-70
2022/04/01 02:08:03;;;;;;;13.48;5.63;;;;;;;-0.70;100.00;100783.97;5092381;28;20048;-70
2022/04/01 02:10:30;;;;;;;12.23;5.53;;;;;;;-0.71;100.00;100784.75;5092223;28;20047;-72
2022/04/01 02:12:59;;;;;;;7.75;4.63;;;;;;;-0.70;100.00;100778.81;5091878;28;20101;-68
2022/04/01 02:15:28;;;;;;;8.68;5.10;;;;;;;-0.73;100.00;100783.78;5092177;28;20088;-70
2022/04/01 02:17:56;;;;;;;11.20;5.38;;;;;;;-0.71;100.00;100787.34;5092237;28;20086;-69
2022/04/01 02:20:24;;;;;;;10.55;4.95;;;;;;;-0.68;100.00;100782.38;5092307;28;20052;-70
2022/04/01 02:22:53;;;;;;;10.27;5.45;;;;;;;-0.66;100.00;100785.91;5092254;28;20044;-70
2022/04/01 02:25:23;;;;;;;9.07;4.22;;;;;;;-0.64;100.00;100792.03;5091810;28;20346;-69
2022/04/01 02:27:51;;;;;;;9.57;4.93;;;;;;;-0.66;100.00;100791.97;5092132;28;20119;-69
2022/04/01 02:30:19;;;;;;;13.45;5.97;;;;;;;-0.65;100.00;100792.84;5091939;28;20090;-69
2022/04/01 02:32:48;;;;;;;10.82;5.55;;;;;;;-0.63;100.00;100798.97;5091731;28;20120;-69
2022/04/01 02:35:16;;;;;;;10.00;4.80;;;;;;;-0.59;100.00;100797.44;5092015;28;20079;-70
2022/04/01 02:37:44;;;;;;;9.25;5.40;;;;;;;-0.60;100.00;100805.97;5092054;28;20134;-70
2022/04/01 02:40:12;;;;;;;8.43;4.90;;;;;;;-0.64;100.00;100799.78;5092399;28;20148;-70
2022/04/01 02:42:41;;;;;;;9.98;6.00;;;;;;;-0.63;100.00;100804.13;5092135;28;20043;-70
2022/04/01 02:45:09;;;;;;;9.85;5.38;;;;;;;-0.62;100.00;100803.31;5092347;28;20118;-70
2022/04/01 02:47:37;;;;;;;8.20;4.43;;;;;;;-0.59;100.00;100818.06;5091788;28;20123;-70
2022/04/01 02:50:08;;;;;;;7.28;3.67;;;;;;;-0.54;100.00;100819.22;5091926;28;20052;-70
2022/04/01 02:52:35;;;;;;;6.38;3.97;;;;;;;-0.56;100.00;100810.50;5091597;28;20040;-71
2022/04/01 02:55:05;;;;;;;9.77;5.32;;;;;;;-0.59;100.00;100818.94;5091770;28;20078;-71
2022/04/01 02:57:33;;;;;;;7.95;4.85;;;;;;;-0.59;100.00;100823.22;5091999;28;20043;-72
2022/04/01 03:00:01;;;;;;;8.95;4.80;;;;;;;-0.61;100.00;100827.38;5092141;28;20044;-72
2022/04/01 03:02:29;;;;;;;7.03;4.22;;;;;;;-0.59;100.00;100831.81;5095429;28;20075;-70
2022/04/01 03:04:58;;;;;;;9.55;4.97;;;;;;;-0.62;100.00;100839.38;5095504;28;20071;-70
2022/04/01 03:07:27;;;;;;;10.52;5.13;;;;;;;-0.65;100.00;100828.91;5095423;28;20051;-71
2022/04/01 03:09:56;;;;;;;8.45;4.68;;;;;;;-0.59;100.00;100839.56;5095123;28;20144;-70
2022/04/01 03:12:23;;;;;;;11.00;4.15;;;;;;;-0.55;100.00;100831.22;5094990;28;20090;-68
2022/04/01 03:14:52;;;;;;;7.10;3.70;;;;;;;-0.53;100.00;100833.88;5095300;28;20058;-69
2022/04/01 03:17:20;;;;;;;7.78;4.85;;;;;;;-0.54;100.00;100844.97;5094925;28;20085;-69
2022/04/01 03:19:47;;;;;;;9.60;4.82;;;;;;;-0.58;100.00;100846.47;5095301;28;20048;-69
2022/04/01 03:22:16;;;;;;;7.57;4.53;;;;;;;-0.58;100.00;100858.47;5094867;28;20127;-68
2022/04/01 03:24:46;;;;;;;11.45;5.60;;;;;;;-0.58;100.00;100855.91;5095113;28;20091;-69
2022/04/01 03:27:14;;;;;;;12.85;6.97;;;;;;;-0.62;100.00;100854.84;5094812;28;20056;-69
2022/04/01 03:29:42;;;;;;;7.03;4.47;;;;;;;-0.61;100.00;100856.59;5095159;28;20097;-72
2022/04/01 03:32:13;;;;;;;10.07;5.97;;;;;;;-0.57;100.00;100863.72;5094474;28;20062;-70
2022/04/01 03:34:42;;;;;;;7.88;5.20;;;;;;;-0.58;100.00;100868.78;5094931;28;20051;-73
2022/04/01 03:37:10;;;;;;;9.77;5.70;;;;;;;-0.55;100.00;100868.97;5094898;28;20044;-71
2022/04/01 03:39:39;;;;;;;10.35;5.07;;;;;;;-0.58;100.00;100864.50;5094533;28;20040;-72
2022/04/01 03:42:08;;;;;;;8.05;4.65;;;;;;;-0.57;100.00;100863.72;5094751;28;20467;-71
2022/04/01 03:44:39;;;;;;;10.02;4.72;;;;;;;-0.54;100.00;100865.59;5094795;28;20062;-72
2022/04/01 03:47:12;;;;;;;9.00;4.90;;;;;;;-0.59;100.00;100867.88;5094326;28;20098;-72
2022/04/01 03:49:51;;;;;;;9.80;4.95;;;;;;;-0.55;100.00;100887.00;5094770;28;20085;-71
2022/04/01 03:52:20;;;;;;;7.82;4.50;;;;;;;-0.52;100.00;100872.59;5094682;28;20048;-71
2022/04/01 03:54:48;;;;;;;7.90;5.13;;;;;;;-0.55;100.00;100887.88;5094616;28;20055;-72
2022/04/01 03:57:26;;;;;;;8.32;4.78;;;;;;;-0.52;100.00;100884.59;5094611;28;20048;-72
2022/04/01 03:59:57;;;;;;;10.55;5.22;;;;;;;-0.56;100.00;100886.09;5094630;28;20056;-72
2022/04/01 04:02:25;;;;;;;10.88;6.38;;;;;;;-0.56;100.00;100896.41;5094510;28;20116;-68
2022/04/01 04:04:55;;;;;;;15.63;6.93;;;;;;;-0.57;100.00;100899.78;5094388;28;20080;-71
2022/04/01 04:07:24;;;;;;;9.35;5.30;;;;;;;-0.54;100.00;100909.38;5094335;28;20052;-72
2022/04/01 04:09:52;;;;;;;12.55;6.18;;;;;;;-0.52;100.00;100906.09;5094394;28;20066;-72
2022/04/01 04:12:22;;;;;;;10.40;5.10;;;;;;;-0.56;100.00;100904.13;5093101;28;20048;-71
2022/04/01 04:14:54;;;;;;;9.07;5.38;;;;;;;-0.47;100.00;100917.56;5094418;28;20063;-70
2022/04/01 04:17:31;;;;;;;9.80;5.00;;;;;;;-0.52;100.00;100912.94;5094337;28;20063;-70
2022/04/01 04:20:03;;;;;;;8.70;4.53;;;;;;;-0.52;100.00;100928.38;5094152;28;20052;-70
2022/04/01 04:22:41;;;;;;;8.80;4.68;;;;;;;-0.50;100.00;100927.69;5094156;28;20072;-68
2022/04/01 04:25:14;;;;;;;8.57;3.72;;;;;;;-0.50;100.00;100922.53;5085738;28;20138;-71
2022/04/01 04:27:56;;;;;;;8.90;4.55;;;;;;;-0.50;100.00;100922.53;5093679;28;20097;-68
2022/04/01 04:30:32;;;;;;;10.70;5.85;;;;;;;-0.53;100.00;100924.91;5093582;28;20046;-68
2022/04/01 04:33:05;;;;;;;10.88;5.63;;;;;;;-0.52;100.00;100930.97;5093442;28;20093;-68
2022/04/01 04:35:37;;;;;;;12.57;5.93;;;;;;;-0.51;100.00;100941.34;5093865;28;20090;-68
2022/04/01 04:38:05;;;;;;;5.70;4.00;;;;;;;-0.45;100.00;100926.25;5093822;28;20044;-68
2022/04/01 04:40:35;;;;;;;6.22;4.00;;;;;;;-0.47;100.00;100933.00;5093606;28;20055;-68
2022/04/01 04:43:04;;;;;;;10.07;4.90;;;;;;;-0.51;100.00;100943.94;5093820;28;20052;-68
2022/04/01 04:45:32;;;;;;;8.30;4.97;;;;;;;-0.48;100.00;100949.25;5093377;28;20445;-70
2022/04/01 04:48:01;;;;;;;9.07;4.50;;;;;;;-0.48;100.00;100957.00;5093202;28;20517;-71
2022/04/01 04:50:29;;;;;;;10.50;4.93;;;;;;;-0.48;100.00;100954.41;5093907;28;20048;-70
2022/04/01 04:52:57;;;;;;;7.30;3.95;;;;;;;-0.44;100.00;100948.66;5093469;28;20093;-73
2022/04/01 04:55:25;;;;;;;7.43;4.03;;;;;;;-0.45;100.00;100962.31;5093302;28;20124;-68
2022/04/01 04:57:53;;;;;;;6.22;3.58;;;;;;;-0.41;100.00;100965.97;5093399;28;20047;-71
2022/04/01 05:00:23;;;;;;;7.80;3.97;;;;;;;-0.42;100.00;100972.81;5093237;28;20048;-71
2022/04/01 05:03:13;;;;;;;9.20;4.25;;;;;;;-0.41;100.00;100990.06;5093021;28;20131;-72
2022/04/01 05:05:44;;;;;;;11.32;5.15;;;;;;;-0.42;100.00;100988.28;5093600;28;20102;-69
2022/04/01 05:08:21;;;;;;;7.68;3.28;;;;;;;-0.45;100.00;100993.25;5093261;28;20092;-69
2022/04/01 05:10:55;;;;;;;9.48;3.80;;;;;;;-0.43;100.00;100986.50;5093050;28;20524;-69
2022/04/01 05:13:32;;;;;;;11.88;4.47;;;;;;;-0.47;100.00;101002.56;5093141;28;20452;-70
2022/04/01 05:16:05;;;;;;;9.20;4.13;;;;;;;-0.46;100.00;100999.19;5092871;28;20052;-69
2022/04/01 05:18:41;;;;;;;7.70;3.53;;;;;;;-0.45;100.00;101005.25;5093190;28;20071;-70
2022/04/01 05:21:18;;;;;;;6.32;3.47;;;;;;;-0.40;100.00;101012.44;5093379;28;20119;-69
2022/04/01 05:23:54;;;;;;;7.07;3.33;;;;;;;-0.43;100.00;101012.25;5092535;28;20441;-70
2022/04/01 05:26:38;;;;;;;6.80;4.30;;;;;;;-0.35;100.00;101011.03;5092998;28;20078;-70
2022/04/01 05:29:10;;;;;;;;;;;;;;;-0.34;100.00;101028.28;5093485;28;20479;-70
2022/04/01 05:31:46;;;;;;;4.43;3.00;;;;;;;-0.28;99.72;101017.44;5092708;28;19916;-72
2022/04/01 05:34:20;;;;;;;8.32;3.58;;;;;;;-0.29;99.91;101040.53;5092852;28;20040;-69
2022/04/01 05:36:50;;;;;;;7.22;3.22;;;;;;;-0.23;99.84;101035.75;5092968;28;20091;-69
2022/04/01 05:39:19;;;;;;;4.68;3.28;;;;;;;-0.21;98.73;101042.78;5092860;28;20044;-70
2022/04/01 05:41:47;;;;;;;6.55;3.35;;;;;;;-0.24;98.83;101044.28;5092879;28;20135;-70
2022/04/01 05:44:15;;;;;;;7.55;3.78;;;;;;;-0.26;98.79;101056.19;5092931;28;20127;-70
2022/04/01 05:46:45;;;;;;;6.95;3.00;;;;;;;-0.27;98.44;101055.31;5092347;28;20050;-70
2022/04/01 05:49:14;;;;;;;8.40;3.40;;;;;;;-0.20;98.61;101067.75;5092433;28;20370;-70
2022/04/01 05:51:46;;;;;;;6.72;3.20;;;;;;;-0.23;98.24;101054.69;5092847;28;20039;-71
2022/04/01 05:54:16;;;;;;;4.97;3.10;;;;;;;-0.20;97.38;101061.72;5092339;28;20204;-70
2022/04/01 05:56:46;;;;;;;7.18;3.10;;;;;;;-0.23;97.14;101059.84;5092643;28;20052;-72
2022/04/01 05:59:16;;;;;;;6.38;3.22;;;;;;;-0.16;96.56;101063.66;5092087;28;20036;-72
2022/04/01 06:01:49;;;;;;;6.55;2.72;;;;;;;-0.14;96.48;101067.22;5092212;28;20048;-72
2022/04/01 06:04:43;;;;;;;6.88;4.00;;;;;;;-0.13;95.96;101074.16;5092254;28;20047;-73
2022/04/01 06:07:23;;;;;;;5.47;3.47;;;;;;;-0.05;95.70;101075.50;5092415;28;20048;-70
2022/04/01 06:09:59;;;;;;;8.90;3.42;;;;;;;0.02;95.25;101085.34;5092112;28;20543;-70
2022/04/01 06:12:33;;;;;;;7.20;3.53;;;;;;;0.02;95.54;101087.94;5092295;28;20049;-73
2022/04/01 06:15:10;;;;;;;7.25;3.42;;;;;;;0.08;95.06;101080.56;5092464;28;20075;-73
2022/04/01 06:17:52;;;;;;;5.00;3.03;;;;;;;0.13;94.26;101089.47;5091939;28;20082;-73
2022/04/01 06:20:25;;;;;;;6.47;3.15;;;;;;;0.22;94.09;101095.16;5092143;28;20055;-70
2022/04/01 06:23:00;;;;;;;6.95;3.67;;;;;;;0.23;94.52;101086.63;5092065;28;20044;-71
2022/04/01 06:25:32;;;;;;;5.63;2.88;;;;;;;0.36;93.75;101102.81;5092153;28;20048;-69
2022/04/01 06:28:15;;;;;;;10.95;3.75;;;;;;;0.43;93.64;101099.78;5091922;28;20098;-70
2022/04/01 06:30:44;;;;;;;6.80;3.22;;;;;;;0.51;93.00;101106.28;5092213;28;20067;-70
2022/04/01 06:33:22;;;;;;;10.15;3.22;;;;;;;0.58;92.22;101106.72;5091824;28;20036;-70
2022/04/01 06:35:57;;;;;;;5.65;3.28;;;;;;;0.65;91.22;101114.00;5093475;28;20126;-71
2022/04/01 06:38:39;;;;;;;9.73;3.95;;;;;;;0.72;91.11;101107.50;5096105;28;20052;-71
2022/04/01 06:41:08;;;;;;;7.32;3.78;;;;;;;0.79;90.84;101125.13;5095845;28;20056;-71
2022/04/01 06:43:36;;;;;;;7.78;3.22;;;;;;;0.82;90.67;101111.50;5095802;28;20420;-69
2022/04/01 06:46:05;;;;;;;5.97;3.65;;;;;;;0.87;90.50;101123.84;5095890;28;20154;-70
2022/04/01 06:48:34;;;;;;;6.03;3.22;;;;;;;0.90;90.36;101124.03;5095926;28;20055;-70
2022/04/01 06:51:03;;;;;;;6.05;3.67;;;;;;;0.90;89.87;101139.53;5095774;28;20130;-70
2022/04/01 06:53:31;;;;;;;7.43;3.80;;;;;;;0.90;88.70;101142.09;5095219;28;20083;-70
2022/04/01 06:56:03;;;;;;;8.85;3.63;;;;;;;0.96;87.66;101150.19;5095460;28;20044;-70
2022/04/01 06:58:32;;;;;;;5.75;3.20;;;;;;;1.05;87.88;101143.75;5095473;28;20086;-70
2022/04/01 07:01:00;;;;;;;7.50;3.17;;;;;;;1.12;87.95;101148.44;5094352;28;20044;-71
2022/04/01 07:03:35;;;;;;;;;;;;;;;1.23;88.10;101144.75;5095128;28;20079;-70
2022/04/01 07:06:05;;;;;;;10.38;3.55;;;;;;;1.29;88.53;101158.91;5095307;28;20265;-70
2022/04/01 07:08:33;;;;;;;7.05;3.17;;;;;;;1.33;88.90;101152.22;5095317;28;20067;-70
2022/04/01 07:11:01;;;;;;;20.05;3.72;;;;;;;1.32;88.40;101160.78;5094339;28;20089;-70
2022/04/01 07:13:29;;;;;;;7.90;3.33;;;;;;;1.33;89.67;101166.84;5094858;28;20044;-71
2022/04/01 07:15:57;;;;;;;4.93;2.65;;;;;;;1.23;89.14;101166.31;5094792;28;20146;-74
2022/04/01 07:18:25;;;;;;;6.43;2.85;;;;;;;1.25;88.95;101166.41;5094922;28;20470;-74
2022/04/01 07:20:54;;;;;;;7.93;4.20;;;;;;;1.16;89.21;101168.47;5095009;28;20055;-74
2022/04/01 07:23:22;;;;;;;4.57;2.75;;;;;;;1.18;89.46;101172.94;5094538;28;20056;-74
2022/04/01 07:25:50;;;;;;;7.30;2.88;;;;;;;1.17;89.45;101171.16;5094560;28;20149;-73
2022/04/01 07:28:21;;;;;;;6.50;2.80;;;;;;;1.15;88.97;101161.53;5094824;28;20048;-74
2022/04/01 07:30:50;;;;;;;6.82;2.80;;;;;;;1.19;89.15;101168.66;5094660;28;20461;-74
2022/04/01 07:33:19;;;;;;;6.53;2.88;;;;;;;1.23;87.67;101168.03;5094930;28;20075;-75
2022/04/01 07:35:49;;;;;;;6.18;2.72;;;;;;;1.26;87.04;101170.78;5094545;28;20105;-75
2022/04/01 07:38:18;;;;;;;6.15;3.30;;;;;;;1.25;87.90;101172.47;5094392;28;20056;-75
2022/04/01 07:40:46;;;;;;;8.13;3.08;;;;;;;1.35;86.87;101173.88;5095123;28;20093;-74
2022/04/01 07:43:14;;;;;;;6.88;2.40;;;;;;;1.43;86.92;101177.75;5094447;28;20462;-75
2022/04/01 07:45:43;;;;;;;12.70;3.03;;;;;;;1.44;87.79;101181.25;5094886;28;20086;-75
2022/04/01 07:48:11;;;;;;;7.03;2.40;;;;;;;1.47;86.39;101171.97;5094979;28;20040;-76
2022/04/01 07:50:40;;;;;;;4.10;2.67;;;;;;;1.50;85.62;101181.56;5094344;28;20090;-75
2022/04/01 07:53:08;;;;;;;5.38;2.63;;;;;;;1.60;85.33;101182.16;5094094;28;20051;-76
2022/04/01 07:55:37;;;;;;;6.28;2.40;;;;;;;1.66;84.88;101188.47;5094641;28;20049;-76
2022/04/01 07:58:05;;;;;;;5.78;2.95;;;;;;;1.70;84.06;101188.72;5094031;28;20132;-76
2022/04/01 08:00:52;;;;;;;5.70;2.17;;;;;;;1.81;82.51;101184.13;5094364;28;20044;-75
2022/04/01 08:03:21;;;;;;;3.25;1.67;;;;;;;1.91;81.81;101197.63;5094232;28;20048;-75
2022/04/01 08:05:51;;;;;;;5.60;2.13;;;;;;;2.08;82.27;101188.16;5094221;28;20047;-75
2022/04/01 08:08:20;;;;;;;6.13;2.33;;;;;;;2.22;81.16;101194.06;5094400;28;20097;-75
2022/04/01 08:10:51;;;;;;;4.15;2.10;;;;;;;2.34;79.92;101192.09;5094363;28;20427;-75
2022/04/01 08:13:19;;;;;;;4.03;1.98;;;;;;;2.39;79.65;101205.28;5093769;28;20161;-75
2022/04/01 08:15:47;;;;;;;4.38;2.15;;;;;;;2.47;79.89;101206.56;5093695;28;20051;-75
2022/04/01 08:18:19;;;;;;;4.13;2.08;;;;;;;2.50;79.21;101204.13;5093810;28;20044;-75
2022/04/01 08:20:47;;;;;;;8.20;2.40;;;;;;;2.55;78.97;101213.03;5094193;28;20063;-74
2022/04/01 08:23:15;;;;;;;4.95;1.90;;;;;;;2.53;78.34;101210.34;5094024;28;20040;-74
2022/04/01 08:25:43;;;;;;;2.22;1.67;;;;;;;2.50;76.89;101211.91;5093944;28;20123;-73
2022/04/01 08:28:12;;;;;;;6.03;2.53;;;;;;;2.52;78.21;101223.22;5094002;28;20040;-74
2022/04/01 08:30:41;;;;;;;4.18;1.92;;;;;;;2.53;77.73;101214.66;5093754;28;20062;-75
2022/04/01 08:33:10;;;;;;;4.50;2.25;;;;;;;2.49;76.46;101218.78;5093450;28;20131;-74
2022/04/01 08:35:38;;;;;;;5.28;1.85;;;;;;;2.53;76.00;101223.31;5093538;28;20036;-75
2022/04/01 08:38:06;;;;;;;4.45;1.73;;;;;;;2.61;75.88;101223.69;5093651;28;20054;-74
2022/04/01 08:40:35;;;;;;;6.03;2.35;;;;;;;2.62;75.20;101228.06;5093534;28;20048;-74
2022/04/01 08:43:03;;;;;;;3.47;1.60;;;;;;;2.69;74.95;101235.34;5093245;28;20064;-74
2022/04/01 08:45:36;;;;;;;3.30;1.73;;;;;;;2.86;76.54;101225.84;5093320;28;20376;-74
2022/04/01 08:48:07;;;;;;;4.53;1.85;;;;;;;2.82;75.12;101244.63;5092926;28;20083;-73
2022/04/01 08:50:41;;;;;;;4.05;2.03;;;;;;;2.86;75.29;101241.38;5093059;28;20099;-74
2022/04/01 08:53:10;;;;;;;3.22;2.00;;;;;;;2.84;73.86;101243.00;5092853;28;20082;-74
2022/04/01 08:55:39;;;;;;;4.93;1.63;;;;;;;2.85;73.60;101242.19;5092969;28;20050;-74
2022/04/01 08:58:08;;;;;;;4.47;1.75;;;;;;;2.86;74.44;101268.16;5092620;28;20055;-75
2022/04/01 09:00:38;;;;;;;3.78;1.25;;;;;;;2.81;71.18;101259.28;5093549;28;20306;-74
2022/04/01 09:03:10;;;;;;;2.40;1.70;;;;;;;2.80;71.19;101267.84;5093009;28;20380;-72
2022/04/01 09:05:39;;;;;;;3.92;1.77;;;;;;;2.73;70.68;101262.28;5093016;28;20043;-72
2022/04/01 09:08:09;;;;;;;2.25;1.50;;;;;;;2.76;70.93;101267.63;5092932;28;20044;-72
2022/04/01 09:10:50;;;;;;;3.70;1.60;;;;;;;2.73;70.94;101268.34;5092713;28;20044;-70
2022/04/01 09:13:19;;;;;;;2.15;1.42;;;;;;;2.73;69.58;101270.94;5092720;28;20087;-71
2022/04/01 09:15:48;;;;;;;4.05;1.60;;;;;;;2.67;69.92;101270.63;5092771;28;20072;-71
2022/04/01 09:18:38;;;;;;;2.17;1.33;;;;;;;2.73;71.25;101285.59;5092844;28;20048;-71
2022/04/01 09:21:07;;;;;;;1.85;0.98;;;;;;;2.63;71.34;101281.63;5093035;28;20044;-71
2022/04/01 09:23:36;;;;;;;2.97;1.60;;;;;;;2.66;71.60;101294.75;5092750;28;20105;-71
2022/04/01 09:26:05;;;;;;;2.22;1.42;;;;;;;2.67;70.18;101288.75;5092486;28;20081;-71
2022/04/01 09:28:34;;;;;;;3.78;1.75;;;;;;;2.69;71.36;101294.91;5092756;28;20063;-71
2022/04/01 09:31:10;;;;;;;1.60;1.50;;;;;;;2.77;71.17;101291.00;5092808;28;20048;-73
2022/04/01 09:33:59;;;;;;;3.60;1.67;;;;;;;2.81;71.69;101295.53;5092562;28;20146;-71
2022/04/01 09:36:33;;;;;;;4.32;1.77;;;;;;;2.88;70.99;101312.28;5092462;28;20079;-75
2022/04/01 09:39:01;;;;;;;;;;;;;;;2.87;70.18;101306.22;5092714;28;20486;-74
2022/04/01 09:41:34;;;;;;;2.25;1.55;;;;;;;2.94;70.08;101304.81;5092499;28;19967;-74
2022/04/01 09:44:24;;;;;;;2.65;1.67;;;;;;;3.18;72.62;101298.25;5092245;28;20056;-70
2022/04/01 09:46:57;;;;;;;3.20;1.67;;;;;;;3.34;71.21;101305.09;5092392;28;20425;-71
2022/04/01 09:49:38;;;;;;;4.13;1.87;;;;;;;3.44;70.70;101309.03;5092221;28;20399;-70
2022/04/01 09:52:08;;;;;;;3.13;2.00;;;;;;;3.44;70.38;101311.63;5092333;28;20044;-70
2022/04/01 09:54:44;;;;;;;5.75;2.00;;;;;;;3.39;70.90;101303.63;5092404;28;20101;-70
2022/04/01 09:57:13;;;;;;;2.60;1.90;;;;;;;3.38;71.09;101316.50;5092395;28;20036;-70
2022/04/01 09:59:43;;;;;;;5.50;2.42;;;;;;;3.41;70.63;101314.06;5092277;28;20055;-71
2022/04/01 10:02:12;;;;;;;3.63;1.60;;;;;;;3.32;69.82;101317.09;5092383;28;20109;-70
2022/04/01 10:04:41;;;;;;;6.00;2.20;;;;;;;3.37;70.28;101315.63;5091915;28;20048;-70
2022/04/01 10:07:13;;;;;;;2.38;1.55;;;;;;;3.37;69.73;101326.00;5092200;28;20104;-69
2022/04/01 10:09:43;;;;;;;6.20;2.40;;;;;;;3.39;70.44;101324.38;5092007;28;20077;-75
2022/04/01 10:12:32;;;;;;;3.97;1.77;;;;;;;3.46;70.21;101321.25;5090717;28;20052;-74
2022/04/01 10:15:01;;;;;;;4.93;2.53;;;;;;;3.47;70.68;101323.03;5095857;28;20063;-73
2022/04/01 10:17:54;;;;;;;4.85;2.30;;;;;;;3.28;71.85;101331.59;5095776;28;20075;-73
2022/04/01 10:20:29;;;;;;;3.65;1.95;;;;;;;3.20;73.94;101334.63;5096307;28;20091;-74
2022/04/01 10:22:58;;;;;;;5.45;2.30;;;;;;;3.38;75.52;101340.75;5095732;28;20484;-73
2022/04/01 10:25:31;;;;;;;6.57;1.98;;;;;;;3.31;75.51;101336.06;5095986;28;20207;-73
2022/04/01 10:28:02;;;;;;;3.20;1.70;;;;;;;3.35;74.10;101343.19;5095739;28;20105;-74
2022/04/01 10:30:31;;;;;;;5.15;2.17;;;;;;;3.37;73.90;101349.31;5096105;28;20052;-74
2022/04/01 10:33:05;;;;;;;5.57;2.20;;;;;;;3.24;74.86;101345.22;5095852;28;20056;-73
2022/04/01 10:35:35;;;;;;;2.75;1.90;;;;;;;3.35;75.34;101353.53;5095460;28;20053;-74
2022/04/01 10:38:17;;;;;;;4.55;2.13;;;;;;;3.24;74.56;101339.16;5095519;28;20044;-74
2022/04/01 10:40:49;;;;;;;6.25;2.30;;;;;;;3.15;75.62;101333.50;5095786;28;20056;-74
2022/04/01 10:43:19;;;;;;;2.58;1.73;;;;;;;3.07;74.27;101342.63;5095777;28;20056;-75
2022/04/01 10:46:02;;;;;;;5.47;1.95;;;;;;;2.91;74.57;101347.00;5095451;28;20052;-74
2022/04/01 10:51:38;;;;;;;2.95;2.08;;;;;;;2.87;74.86;101357.13;5095422;28;20054;-75
2022/04/01 10:54:42;;;;;;;3.65;2.35;;;;;;;2.76;73.44;101343.63;5095563;28;20048;-71
2022/04/01 10:57:11;;;;;;;;;;;;;;;2.84;73.85;101360.47;5096318;28;20056;-71
2022/04/01 10:59:40;;;;;;;1.90;1.67;;;;;;;2.91;72.64;101348.72;5095620;28;19962;-71
2022/04/01 11:02:10;;;;;;;4.22;2.20;;;;;;;2.94;72.23;101356.66;5095664;28;20082;-71
2022/04/01 11:04:42;;;;;;;3.92;2.10;;;;;;;3.14;72.63;101358.53;5095201;28;20062;-70
2022/04/01 11:07:12;;;;;;;2.08;1.70;;;;;;;3.25;71.70;101362.56;5095387;28;20046;-72
2022/04/01 11:09:46;;;;;;;4.15;2.03;;;;;;;3.33;72.22;101351.69;5095233;28;20092;-70
2022/04/01 11:12:34;;;;;;;2.58;2.15;;;;;;;3.35;72.36;101352.66;5095497;28;20097;-70
2022/04/01 11:15:25;;;;;;;6.57;2.72;;;;;;;3.28;72.09;101356.63;5095335;28;20085;-70
2022/04/01 11:18:04;;;;;;;5.53;3.78;;;;;;;3.29;72.74;101368.78;5094894;28;20359;-70
2022/04/01 11:20:35;;;;;;;4.85;2.47;;;;;;;3.25;71.49;101372.94;5094627;28;20057;-71
2022/04/01 11:23:13;;;;;;;3.25;2.20;;;;;;;3.10;69.95;101373.88;5094814;28;20048;-75
2022/04/01 11:25:58;;;;;;;4.03;2.47;;;;;;;3.25;70.89;101382.41;5094904;28;20043;-74
2022/04/01 11:28:31;;;;;;;3.65;2.30;;;;;;;3.25;70.55;101378.13;5088905;28;20052;-75
2022/04/01 11:31:10;;;;;;;3.53;2.20;;;;;;;3.12;69.69;101370.53;5094412;28;20535;-76
2022/04/01 11:33:38;;;;;;;4.63;2.63;;;;;;;3.02;71.19;101383.84;5095025;28;20141;-75
2022/04/01 11:36:08;;;;;;;5.95;2.53;;;;;;;3.09;71.80;101385.06;5094217;28;20470;-74
2022/04/01 11:38:38;;;;;;;5.22;2.42;;;;;;;3.12;72.38;101380.88;5094390;28;20065;-74
2022/04/01 11:41:06;;;;;;;5.45;3.17;;;;;;;3.19;73.40;101388.16;5094308;28;20123;-75
2022/04/01 11:43:35;;;;;;;6.82;3.97;;;;;;;3.20;71.65;101391.66;5093990;28;20062;-74
2022/04/01 11:46:06;;;;;;;4.55;2.05;;;;;;;3.03;70.55;101400.28;5094497;28;20055;-74
2022/04/01 11:48:36;;;;;;;5.03;2.95;;;;;;;2.98;72.12;101401.75;5094270;28;20119;-74
2022/04/01 11:51:08;;;;;;;5.03;2.33;;;;;;;3.05;72.59;101401.25;5093804;28;20127;-74